sensor_id;sensor_type;location;lat;lon;timestamp;temperature;humidity
40808;DHT22;26523;52.504;13.498;2022-10-30T00:00:16;13.60;99.90
40808;DHT22;26523;52.504;13.498;2022-10-30T00:02:42;13.60;99.90
40808;DHT22;26523;52.504;13.498;2022-10-30T00:05:07;13.60;99.90
40808;DHT22;26523;52.504;13.498;2022-10-30T00:07:33;13.60;99.90
40808;DHT22;26523;52.504;13.498;2022-10-30T00:09:59;13.50;99.90
40808;DHT22;26523;52.504;13.498;2022-10-30T00:12:24;13.50;99.90
40808;DHT22;26523;52.504;13.498;2022-10-30T00:14:50;13.50;99.90
40808;DHT22;26523;52.504;13.498;2022-10-30T00:17:16;13.60;99.90
40808;DHT22;26523;52.504;13.498;2022-10-30T00:19:41;13.60;99.90
40808;DHT22;26523;52.504;13.498;2022-10-30T00:22:07;13.50;99.90
40808;DHT22;26523;52.504;13.498;2022-10-30T00:24:33;13.50;99.90
40808;DHT22;26523;52.504;13.498;2022-10-30T00:26:59;13.50;99.90
40808;DHT22;26523;52.504;13.498;2022-10-30T00:29:24;13.50;99.90
40808;DHT22;26523;52.504;13.498;2022-10-30T00:31:51;13.50;99.90
40808;DHT22;26523;52.504;13.498;2022-10-30T00:34:17;13.40;99.90
40808;DHT22;26523;52.504;13.498;2022-10-30T00:36:43;13.30;99.90
40808;DHT22;26523;52.504;13.498;2022-10-30T00:39:08;13.40;99.90
40808;DHT22;26523;52.504;13.498;2022-10-30T00:41:34;13.30;99.90
40808;DHT22;26523;52.504;13.498;2022-10-30T00:44:01;13.30;99.90
40808;DHT22;26523;52.504;13.498;2022-10-30T00:46:31;13.30;99.90
40808;DHT22;26523;52.504;13.498;2022-10-30T00:49:01;13.30;99.90
40808;DHT22;26523;52.504;13.498;2022-10-30T00:51:29;13.20;99.90
40808;DHT22;26523;52.504;13.498;2022-10-30T00:53:57;13.20;99.90
40808;DHT22;26523;52.504;13.498;2022-10-30T00:56:24;13.20;99.90
40808;DHT22;26523;52.504;13.498;2022-10-30T00:58:54;13.10;99.90
40808;DHT22;26523;52.504;13.498;2022-10-30T01:01:24;13.10;99.90
40808;DHT22;26523;52.504;13.498;2022-10-30T01:03:54;13.10;99.90
40808;DHT22;26523;52.504;13.498;2022-10-30T01:06:20;13.00;99.90
40808;DHT22;26523;52.504;13.498;2022-10-30T01:08:47;13.00;99.90
40808;DHT22;26523;52.504;13.498;2022-10-30T01:11:13;13.00;99.90
40808;DHT22;26523;52.504;13.498;2022-10-30T01:13:40;12.90;99.90
40808;DHT22;26523;52.504;13.498;2022-10-30T01:20:17;12.90;99.90
40808;DHT22;26523;52.504;13.498;2022-10-30T01:28:08;12.80;99.90
40808;DHT22;26523;52.504;13.498;2022-10-30T01:33:24;12.80;99.90
40808;DHT22;26523;52.504;13.498;2022-10-30T01:36:00;12.80;99.90
40808;DHT22;26523;52.504;13.498;2022-10-30T01:38:38;12.80;99.90
40808;DHT22;26523;52.504;13.498;2022-10-30T01:41:06;12.80;99.90
40808;DHT22;26523;52.504;13.498;2022-10-30T01:43:32;12.70;99.90
40808;DHT22;26523;52.504;13.498;2022-10-30T01:49:20;12.80;99.90
40808;DHT22;26523;52.504;13.498;2022-10-30T01:52:43;12.80;99.90
40808;DHT22;26523;52.504;13.498;2022-10-30T01:54:57;12.70;99.90
40808;DHT22;26523;52.504;13.498;2022-10-30T01:57:34;12.70;99.90
40808;DHT22;26523;52.504;13.498;2022-10-30T02:00:08;12.60;99.90
40808;DHT22;26523;52.504;13.498;2022-10-30T02:02:34;12.60;99.90
40808;DHT22;26523;52.504;13.498;2022-10-30T02:05:00;12.50;99.90
40808;DHT22;26523;52.504;13.498;2022-10-30T02:07:26;12.40;99.90
40808;DHT22;26523;52.504;13.498;2022-10-30T02:09:53;12.40;99.90
40808;DHT22;26523;52.504;13.498;2022-10-30T02:12:20;12.40;99.90
40808;DHT22;26523;52.504;13.498;2022-10-30T02:14:52;12.40;99.90
40808;DHT22;26523;52.504;13.498;2022-10-30T02:17:19;12.40;99.90
40808;DHT22;26523;52.504;13.498;2022-10-30T02:19:45;12.40;99.90
40808;DHT22;26523;52.504;13.498;2022-10-30T02:22:11;12.40;99.90
40808;DHT22;26523;52.504;13.498;2022-10-30T02:24:37;12.30;99.90
40808;DHT22;26523;52.504;13.498;2022-10-30T02:27:02;12.30;99.90
40808;DHT22;26523;52.504;13.498;2022-10-30T02:29:28;12.40;99.90
40808;DHT22;26523;52.504;13.498;2022-10-30T02:31:54;12.40;99.90
40808;DHT22;26523;52.504;13.498;2022-10-30T02:34:20;12.40;99.90
40808;DHT22;26523;52.504;13.498;2022-10-30T02:36:46;12.40;99.90
40808;DHT22;26523;52.504;13.498;2022-10-30T02:39:11;12.30;99.90
40808;DHT22;26523;52.504;13.498;2022-10-30T02:41:37;12.30;99.90
40808;DHT22;26523;52.504;13.498;2022-10-30T02:44:03;12.30;99.90
40808;DHT22;26523;52.504;13.498;2022-10-30T02:46:29;12.20;99.90
40808;DHT22;26523;52.504;13.498;2022-10-30T02:48:55;12.20;99.90
40808;DHT22;26523;52.504;13.498;2022-10-30T02:51:20;12.10;99.90
40808;DHT22;26523;52.504;13.498;2022-10-30T02:53:46;12.00;99.90
40808;DHT22;26523;52.504;13.498;2022-10-30T02:56:12;12.10;99.90
40808;DHT22;26523;52.504;13.498;2022-10-30T02:58:39;12.10;99.90
40808;DHT22;26523;52.504;13.498;2022-10-30T03:01:10;12.10;99.90
40808;DHT22;26523;52.504;13.498;2022-10-30T03:03:37;12.10;99.90
40808;DHT22;26523;52.504;13.498;2022-10-30T03:06:04;12.00;99.90
40808;DHT22;26523;52.504;13.498;2022-10-30T03:08:31;12.00;99.90
40808;DHT22;26523;52.504;13.498;2022-10-30T03:13:27;12.00;99.90
40808;DHT22;26523;52.504;13.498;2022-10-30T03:16:01;11.90;99.90
40808;DHT22;26523;52.504;13.498;2022-10-30T03:18:27;11.90;99.90
40808;DHT22;26523;52.504;13.498;2022-10-30T03:20:57;11.90;99.90
40808;DHT22;26523;52.504;13.498;2022-10-30T03:23:23;11.90;99.90
40808;DHT22;26523;52.504;13.498;2022-10-30T03:25:54;11.80;99.90
40808;DHT22;26523;52.504;13.498;2022-10-30T03:28:23;11.90;99.90
40808;DHT22;26523;52.504;13.498;2022-10-30T03:30:49;11.90;99.90
40808;DHT22;26523;52.504;13.498;2022-10-30T03:33:15;11.80;99.90
40808;DHT22;26523;52.504;13.498;2022-10-30T03:35:43;11.80;99.90
40808;DHT22;26523;52.504;13.498;2022-10-30T03:38:09;11.70;99.90
40808;DHT22;26523;52.504;13.498;2022-10-30T03:40:35;11.70;99.90
40808;DHT22;26523;52.504;13.498;2022-10-30T03:43:01;11.80;99.90
40808;DHT22;26523;52.504;13.498;2022-10-30T03:45:26;11.80;99.90
40808;DHT22;26523;52.504;13.498;2022-10-30T03:47:52;11.80;99.90
40808;DHT22;26523;52.504;13.498;2022-10-30T03:50:17;11.80;99.90
40808;DHT22;26523;52.504;13.498;2022-10-30T03:52:43;11.80;99.90
40808;DHT22;26523;52.504;13.498;2022-10-30T03:55:08;11.90;99.90
40808;DHT22;26523;52.504;13.498;2022-10-30T03:57:37;12.10;99.90
40808;DHT22;26523;52.504;13.498;2022-10-30T04:00:04;12.10;99.90
40808;DHT22;26523;52.504;13.498;2022-10-30T04:02:30;12.20;99.90
40808;DHT22;26523;52.504;13.498;2022-10-30T04:04:55;12.20;99.90
40808;DHT22;26523;52.504;13.498;2022-10-30T04:07:21;12.30;99.90
40808;DHT22;26523;52.504;13.498;2022-10-30T04:09:46;12.40;99.90
40808;DHT22;26523;52.504;13.498;2022-10-30T04:12:12;12.40;99.90
40808;DHT22;26523;52.504;13.498;2022-10-30T04:14:37;12.50;99.90
40808;DHT22;26523;52.504;13.498;2022-10-30T04:17:03;12.40;99.90
40808;DHT22;26523;52.504;13.498;2022-10-30T04:19:30;12.40;99.90
40808;DHT22;26523;52.504;13.498;2022-10-30T04:21:56;12.50;99.90
40808;DHT22;26523;52.504;13.498;2022-10-30T04:24:22;12.50;99.90
40808;DHT22;26523;52.504;13.498;2022-10-30T04:26:48;12.50;99.90
40808;DHT22;26523;52.504;13.498;2022-10-30T04:29:13;12.60;99.90
40808;DHT22;26523;52.504;13.498;2022-10-30T04:31:39;12.50;99.90
40808;DHT22;26523;52.504;13.498;2022-10-30T04:34:04;12.50;99.90
40808;DHT22;26523;52.504;13.498;2022-10-30T04:36:30;12.50;99.90
40808;DHT22;26523;52.504;13.498;2022-10-30T04:38:59;12.50;99.90
40808;DHT22;26523;52.504;13.498;2022-10-30T04:41:24;12.60;99.90
40808;DHT22;26523;52.504;13.498;2022-10-30T04:43:50;12.60;99.90
40808;DHT22;26523;52.504;13.498;2022-10-30T04:46:17;12.60;99.90
40808;DHT22;26523;52.504;13.498;2022-10-30T04:48:43;12.60;99.90
40808;DHT22;26523;52.504;13.498;2022-10-30T04:51:09;12.50;99.90
40808;DHT22;26523;52.504;13.498;2022-10-30T04:53:37;12.50;99.90
40808;DHT22;26523;52.504;13.498;2022-10-30T04:56:03;12.50;99.90
40808;DHT22;26523;52.504;13.498;2022-10-30T04:58:29;12.60;99.90
40808;DHT22;26523;52.504;13.498;2022-10-30T05:00:54;12.60;99.90
40808;DHT22;26523;52.504;13.498;2022-10-30T05:03:22;12.60;99.90
40808;DHT22;26523;52.504;13.498;2022-10-30T05:05:57;12.60;99.90
40808;DHT22;26523;52.504;13.498;2022-10-30T05:08:23;12.60;99.90
40808;DHT22;26523;52.504;13.498;2022-10-30T05:10:48;12.60;99.90
40808;DHT22;26523;52.504;13.498;2022-10-30T05:13:14;12.60;99.90
40808;DHT22;26523;52.504;13.498;2022-10-30T05:15:40;12.50;99.90
40808;DHT22;26523;52.504;13.498;2022-10-30T05:18:05;12.60;99.90
40808;DHT22;26523;52.504;13.498;2022-10-30T05:20:31;12.60;99.90
40808;DHT22;26523;52.504;13.498;2022-10-30T05:22:58;12.60;99.90
40808;DHT22;26523;52.504;13.498;2022-10-30T05:25:24;12.70;99.90
40808;DHT22;26523;52.504;13.498;2022-10-30T05:27:56;12.70;99.90
40808;DHT22;26523;52.504;13.498;2022-10-30T05:30:21;12.70;99.90
40808;DHT22;26523;52.504;13.498;2022-10-30T05:32:47;12.80;99.90
40808;DHT22;26523;52.504;13.498;2022-10-30T05:35:13;12.70;99.90
40808;DHT22;26523;52.504;13.498;2022-10-30T05:37:38;12.70;99.90
40808;DHT22;26523;52.504;13.498;2022-10-30T05:40:04;12.60;99.90
40808;DHT22;26523;52.504;13.498;2022-10-30T05:42:30;12.60;99.90
40808;DHT22;26523;52.504;13.498;2022-10-30T05:44:55;12.60;99.90
40808;DHT22;26523;52.504;13.498;2022-10-30T05:47:21;12.60;99.90
40808;DHT22;26523;52.504;13.498;2022-10-30T05:49:47;12.60;99.90
40808;DHT22;26523;52.504;13.498;2022-10-30T05:52:12;12.60;99.90
40808;DHT22;26523;52.504;13.498;2022-10-30T05:54:38;12.70;99.90
40808;DHT22;26523;52.504;13.498;2022-10-30T05:57:03;12.80;99.90
40808;DHT22;26523;52.504;13.498;2022-10-30T05:59:29;12.70;99.90
40808;DHT22;26523;52.504;13.498;2022-10-30T06:01:54;12.70;99.90
40808;DHT22;26523;52.504;13.498;2022-10-30T06:04:21;12.70;99.90
40808;DHT22;26523;52.504;13.498;2022-10-30T06:06:46;12.70;99.90
40808;DHT22;26523;52.504;13.498;2022-10-30T06:09:12;12.70;99.90
40808;DHT22;26523;52.504;13.498;2022-10-30T06:11:37;12.60;99.90
40808;DHT22;26523;52.504;13.498;2022-10-30T06:14:03;12.60;99.90
40808;DHT22;26523;52.504;13.498;2022-10-30T06:16:29;12.70;99.90
40808;DHT22;26523;52.504;13.498;2022-10-30T06:18:54;12.60;99.90
40808;DHT22;26523;52.504;13.498;2022-10-30T06:21:20;12.60;99.90
40808;DHT22;26523;52.504;13.498;2022-10-30T06:23:47;12.60;99.90
40808;DHT22;26523;52.504;13.498;2022-10-30T06:26:12;12.60;99.90
40808;DHT22;26523;52.504;13.498;2022-10-30T06:28:38;12.60;99.90
40808;DHT22;26523;52.504;13.498;2022-10-30T06:31:04;12.60;99.90
40808;DHT22;26523;52.504;13.498;2022-10-30T06:33:30;12.80;99.90
40808;DHT22;26523;52.504;13.498;2022-10-30T06:35:56;12.70;99.90
40808;DHT22;26523;52.504;13.498;2022-10-30T06:38:21;12.80;99.90
40808;DHT22;26523;52.504;13.498;2022-10-30T06:40:47;12.80;99.90
40808;DHT22;26523;52.504;13.498;2022-10-30T06:43:13;12.80;99.90
40808;DHT22;26523;52.504;13.498;2022-10-30T06:45:39;12.80;99.90
40808;DHT22;26523;52.504;13.498;2022-10-30T06:48:05;12.80;99.90
40808;DHT22;26523;52.504;13.498;2022-10-30T06:50:30;12.80;99.90
40808;DHT22;26523;52.504;13.498;2022-10-30T06:52:56;12.90;99.90
40808;DHT22;26523;52.504;13.498;2022-10-30T06:55:22;12.90;99.90
40808;DHT22;26523;52.504;13.498;2022-10-30T06:57:55;12.90;99.90
40808;DHT22;26523;52.504;13.498;2022-10-30T07:00:21;13.00;99.90
40808;DHT22;26523;52.504;13.498;2022-10-30T07:02:58;13.10;99.90
40808;DHT22;26523;52.504;13.498;2022-10-30T07:05:24;13.20;99.90
40808;DHT22;26523;52.504;13.498;2022-10-30T07:07:50;13.30;99.90
40808;DHT22;26523;52.504;13.498;2022-10-30T07:10:15;13.40;99.90
40808;DHT22;26523;52.504;13.498;2022-10-30T07:12:41;13.50;99.90
40808;DHT22;26523;52.504;13.498;2022-10-30T07:15:07;13.50;99.90
40808;DHT22;26523;52.504;13.498;2022-10-30T07:17:32;13.50;99.90
40808;DHT22;26523;52.504;13.498;2022-10-30T07:19:58;13.50;99.90
40808;DHT22;26523;52.504;13.498;2022-10-30T07:22:23;13.50;99.90
40808;DHT22;26523;52.504;13.498;2022-10-30T07:24:49;13.60;99.90
40808;DHT22;26523;52.504;13.498;2022-10-30T07:27:15;13.50;99.90
40808;DHT22;26523;52.504;13.498;2022-10-30T07:29:40;13.60;99.90
40808;DHT22;26523;52.504;13.498;2022-10-30T07:32:06;13.50;99.90
40808;DHT22;26523;52.504;13.498;2022-10-30T07:34:32;13.50;99.90
40808;DHT22;26523;52.504;13.498;2022-10-30T07:36:58;13.50;99.90
40808;DHT22;26523;52.504;13.498;2022-10-30T07:39:24;13.50;99.90
40808;DHT22;26523;52.504;13.498;2022-10-30T07:41:50;13.50;99.90
40808;DHT22;26523;52.504;13.498;2022-10-30T07:44:15;13.60;99.90
40808;DHT22;26523;52.504;13.498;2022-10-30T07:46:41;13.70;99.90
40808;DHT22;26523;52.504;13.498;2022-10-30T07:49:06;13.70;99.90
40808;DHT22;26523;52.504;13.498;2022-10-30T07:51:35;13.80;99.90
40808;DHT22;26523;52.504;13.498;2022-10-30T07:54:01;13.80;99.90
40808;DHT22;26523;52.504;13.498;2022-10-30T07:56:26;13.90;99.90
40808;DHT22;26523;52.504;13.498;2022-10-30T07:58:52;13.90;99.90
40808;DHT22;26523;52.504;13.498;2022-10-30T08:01:18;13.90;99.90
40808;DHT22;26523;52.504;13.498;2022-10-30T08:03:43;14.00;99.90
40808;DHT22;26523;52.504;13.498;2022-10-30T08:06:09;14.00;99.90
40808;DHT22;26523;52.504;13.498;2022-10-30T08:08:34;14.00;99.90
40808;DHT22;26523;52.504;13.498;2022-10-30T08:11:00;14.00;99.90
40808;DHT22;26523;52.504;13.498;2022-10-30T08:13:25;14.00;99.90
40808;DHT22;26523;52.504;13.498;2022-10-30T08:15:51;14.20;99.90
40808;DHT22;26523;52.504;13.498;2022-10-30T08:18:17;14.30;99.90
40808;DHT22;26523;52.504;13.498;2022-10-30T08:20:42;14.50;99.90
40808;DHT22;26523;52.504;13.498;2022-10-30T08:23:14;14.70;99.90
40808;DHT22;26523;52.504;13.498;2022-10-30T08:25:42;14.80;99.90
40808;DHT22;26523;52.504;13.498;2022-10-30T08:28:08;14.90;99.90
40808;DHT22;26523;52.504;13.498;2022-10-30T08:30:36;15.00;99.90
40808;DHT22;26523;52.504;13.498;2022-10-30T08:33:05;15.00;99.90
40808;DHT22;26523;52.504;13.498;2022-10-30T08:35:31;15.10;99.90
40808;DHT22;26523;52.504;13.498;2022-10-30T08:37:58;15.10;99.90
40808;DHT22;26523;52.504;13.498;2022-10-30T08:40:26;15.10;99.90
40808;DHT22;26523;52.504;13.498;2022-10-30T08:42:53;15.00;99.90
40808;DHT22;26523;52.504;13.498;2022-10-30T08:45:20;15.10;99.90
40808;DHT22;26523;52.504;13.498;2022-10-30T08:47:46;15.00;99.90
40808;DHT22;26523;52.504;13.498;2022-10-30T08:50:11;14.90;99.90
40808;DHT22;26523;52.504;13.498;2022-10-30T08:52:37;15.00;99.90
40808;DHT22;26523;52.504;13.498;2022-10-30T08:55:03;14.90;99.90
40808;DHT22;26523;52.504;13.498;2022-10-30T08:57:34;15.00;99.90
40808;DHT22;26523;52.504;13.498;2022-10-30T09:00:01;15.10;99.90
40808;DHT22;26523;52.504;13.498;2022-10-30T09:02:27;15.20;99.90
40808;DHT22;26523;52.504;13.498;2022-10-30T09:04:52;15.30;99.90
40808;DHT22;26523;52.504;13.498;2022-10-30T09:07:18;15.50;99.90
40808;DHT22;26523;52.504;13.498;2022-10-30T09:09:44;15.80;99.90
40808;DHT22;26523;52.504;13.498;2022-10-30T09:12:09;16.00;99.90
40808;DHT22;26523;52.504;13.498;2022-10-30T09:14:35;16.20;99.90
40808;DHT22;26523;52.504;13.498;2022-10-30T09:17:01;16.40;99.90
40808;DHT22;26523;52.504;13.498;2022-10-30T09:19:26;16.70;99.90
40808;DHT22;26523;52.504;13.498;2022-10-30T09:21:53;16.70;99.90
40808;DHT22;26523;52.504;13.498;2022-10-30T09:24:18;16.80;99.90
40808;DHT22;26523;52.504;13.498;2022-10-30T09:26:44;16.80;99.90
40808;DHT22;26523;52.504;13.498;2022-10-30T09:29:10;16.80;99.90
40808;DHT22;26523;52.504;13.498;2022-10-30T09:31:35;16.80;99.90
40808;DHT22;26523;52.504;13.498;2022-10-30T09:34:01;16.80;99.90
40808;DHT22;26523;52.504;13.498;2022-10-30T09:36:27;16.70;99.90
40808;DHT22;26523;52.504;13.498;2022-10-30T09:38:52;16.70;99.90
40808;DHT22;26523;52.504;13.498;2022-10-30T09:52:21;16.90;99.90
40808;DHT22;26523;52.504;13.498;2022-10-30T09:55:07;16.90;99.90
40808;DHT22;26523;52.504;13.498;2022-10-30T10:06:22;17.20;99.90
40808;DHT22;26523;52.504;13.498;2022-10-30T10:11:48;17.30;99.90
40808;DHT22;26523;52.504;13.498;2022-10-30T10:14:29;17.40;99.90
40808;DHT22;26523;52.504;13.498;2022-10-30T10:16:56;17.40;99.90
40808;DHT22;26523;52.504;13.498;2022-10-30T10:19:57;17.50;99.90
40808;DHT22;26523;52.504;13.498;2022-10-30T10:22:32;17.50;99.90
40808;DHT22;26523;52.504;13.498;2022-10-30T10:25:06;17.50;99.90
40808;DHT22;26523;52.504;13.498;2022-10-30T10:30:27;17.60;99.90
40808;DHT22;26523;52.504;13.498;2022-10-30T10:35:55;17.80;99.90
40808;DHT22;26523;52.504;13.498;2022-10-30T10:41:13;17.80;99.90
40808;DHT22;26523;52.504;13.498;2022-10-30T10:51:28;18.00;99.90
40808;DHT22;26523;52.504;13.498;2022-10-30T10:54:17;18.00;99.90
40808;DHT22;26523;52.504;13.498;2022-10-30T10:56:45;18.10;99.90
40808;DHT22;26523;52.504;13.498;2022-10-30T10:59:17;18.20;99.90
40808;DHT22;26523;52.504;13.498;2022-10-30T11:02:20;18.20;99.90
40808;DHT22;26523;52.504;13.498;2022-10-30T11:04:51;18.20;99.90
40808;DHT22;26523;52.504;13.498;2022-10-30T11:07:22;18.30;99.90
40808;DHT22;26523;52.504;13.498;2022-10-30T11:09:52;18.30;99.90
40808;DHT22;26523;52.504;13.498;2022-10-30T11:12:36;18.30;99.90
40808;DHT22;26523;52.504;13.498;2022-10-30T11:20:20;18.60;99.90
40808;DHT22;26523;52.504;13.498;2022-10-30T11:22:49;18.70;99.90
40808;DHT22;26523;52.504;13.498;2022-10-30T11:25:26;18.70;99.90
40808;DHT22;26523;52.504;13.498;2022-10-30T11:27:59;18.70;99.90
40808;DHT22;26523;52.504;13.498;2022-10-30T11:30:26;18.70;99.90
40808;DHT22;26523;52.504;13.498;2022-10-30T11:32:54;18.70;99.90
40808;DHT22;26523;52.504;13.498;2022-10-30T11:35:21;18.80;99.90
40808;DHT22;26523;52.504;13.498;2022-10-30T11:37:49;18.80;99.90
40808;DHT22;26523;52.504;13.498;2022-10-30T11:40:22;18.80;99.90
40808;DHT22;26523;52.504;13.498;2022-10-30T11:42:59;18.90;99.90
40808;DHT22;26523;52.504;13.498;2022-10-30T11:45:28;18.90;99.90
40808;DHT22;26523;52.504;13.498;2022-10-30T11:47:57;18.90;99.90
40808;DHT22;26523;52.504;13.498;2022-10-30T11:50:26;18.90;99.90
40808;DHT22;26523;52.504;13.498;2022-10-30T11:52:58;18.90;99.90
40808;DHT22;26523;52.504;13.498;2022-10-30T11:55:36;19.00;99.90
40808;DHT22;26523;52.504;13.498;2022-10-30T11:58:05;19.00;99.90
40808;DHT22;26523;52.504;13.498;2022-10-30T12:00:33;18.90;99.90
40808;DHT22;26523;52.504;13.498;2022-10-30T12:02:59;19.00;99.90
40808;DHT22;26523;52.504;13.498;2022-10-30T12:05:30;19.10;99.90
40808;DHT22;26523;52.504;13.498;2022-10-30T12:10:40;19.10;99.90
40808;DHT22;26523;52.504;13.498;2022-10-30T12:13:13;19.10;99.90
40808;DHT22;26523;52.504;13.498;2022-10-30T12:15:39;19.10;99.90
40808;DHT22;26523;52.504;13.498;2022-10-30T12:18:07;19.10;99.90
40808;DHT22;26523;52.504;13.498;2022-10-30T12:20:43;19.10;99.90
40808;DHT22;26523;52.504;13.498;2022-10-30T12:23:15;19.20;99.90
40808;DHT22;26523;52.504;13.498;2022-10-30T12:25:45;19.20;99.90
40808;DHT22;26523;52.504;13.498;2022-10-30T12:28:21;19.10;99.90
40808;DHT22;26523;52.504;13.498;2022-10-30T12:30:57;19.20;99.90
40808;DHT22;26523;52.504;13.498;2022-10-30T12:35:59;19.30;99.90
40808;DHT22;26523;52.504;13.498;2022-10-30T12:38:42;19.20;99.90
40808;DHT22;26523;52.504;13.498;2022-10-30T12:43:57;19.30;99.90
40808;DHT22;26523;52.504;13.498;2022-10-30T12:49:13;19.30;99.90
40808;DHT22;26523;52.504;13.498;2022-10-30T12:51:49;19.40;99.90
40808;DHT22;26523;52.504;13.498;2022-10-30T12:54:24;19.40;99.90
40808;DHT22;26523;52.504;13.498;2022-10-30T12:57:17;19.40;99.90
40808;DHT22;26523;52.504;13.498;2022-10-30T13:05:25;19.50;99.90
40808;DHT22;26523;52.504;13.498;2022-10-30T13:10:45;19.50;99.90
40808;DHT22;26523;52.504;13.498;2022-10-30T13:13:23;19.50;99.90
40808;DHT22;26523;52.504;13.498;2022-10-30T13:15:53;19.60;99.90
40808;DHT22;26523;52.504;13.498;2022-10-30T13:18:22;19.60;99.90
40808;DHT22;26523;52.504;13.498;2022-10-30T13:20:57;19.60;99.90
40808;DHT22;26523;52.504;13.498;2022-10-30T13:23:34;19.60;99.90
40808;DHT22;26523;52.504;13.498;2022-10-30T13:28:46;19.70;99.90
40808;DHT22;26523;52.504;13.498;2022-10-30T13:34:00;19.70;99.90
40808;DHT22;26523;52.504;13.498;2022-10-30T13:36:40;19.70;99.90
40808;DHT22;26523;52.504;13.498;2022-10-30T13:41:39;19.70;99.90
40808;DHT22;26523;52.504;13.498;2022-10-30T13:44:41;19.70;99.90
40808;DHT22;26523;52.504;13.498;2022-10-30T13:47:20;19.70;99.90
40808;DHT22;26523;52.504;13.498;2022-10-30T13:52:39;19.70;99.90
40808;DHT22;26523;52.504;13.498;2022-10-30T13:55:28;19.60;99.90
40808;DHT22;26523;52.504;13.498;2022-10-30T13:58:19;19.60;99.90
40808;DHT22;26523;52.504;13.498;2022-10-30T14:01:16;19.70;99.90
40808;DHT22;26523;52.504;13.498;2022-10-30T14:11:39;19.50;99.90
40808;DHT22;26523;52.504;13.498;2022-10-30T14:17:15;19.50;99.90
40808;DHT22;26523;52.504;13.498;2022-10-30T14:22:33;19.40;99.90
40808;DHT22;26523;52.504;13.498;2022-10-30T14:25:01;19.30;99.90
40808;DHT22;26523;52.504;13.498;2022-10-30T14:27:31;19.30;99.90
40808;DHT22;26523;52.504;13.498;2022-10-30T14:29:57;19.30;99.90
40808;DHT22;26523;52.504;13.498;2022-10-30T14:43:26;19.00;99.90
40808;DHT22;26523;52.504;13.498;2022-10-30T14:45:59;18.90;99.90
40808;DHT22;26523;52.504;13.498;2022-10-30T14:49:10;18.90;99.90
40808;DHT22;26523;52.504;13.498;2022-10-30T14:51:40;18.80;99.90
40808;DHT22;26523;52.504;13.498;2022-10-30T14:54:28;18.70;99.90
40808;DHT22;26523;52.504;13.498;2022-10-30T14:56:58;18.60;99.90
40808;DHT22;26523;52.504;13.498;2022-10-30T14:59:31;18.60;99.90
40808;DHT22;26523;52.504;13.498;2022-10-30T15:04:50;18.40;99.90
40808;DHT22;26523;52.504;13.498;2022-10-30T15:10:36;18.30;99.90
40808;DHT22;26523;52.504;13.498;2022-10-30T15:15:42;18.10;99.90
40808;DHT22;26523;52.504;13.498;2022-10-30T15:18:15;18.00;99.90
40808;DHT22;26523;52.504;13.498;2022-10-30T15:20:42;17.90;99.90
40808;DHT22;26523;52.504;13.498;2022-10-30T15:23:28;17.80;99.90
40808;DHT22;26523;52.504;13.498;2022-10-30T15:25:59;17.70;99.90
40808;DHT22;26523;52.504;13.498;2022-10-30T15:28:30;17.60;99.90
40808;DHT22;26523;52.504;13.498;2022-10-30T15:31:02;17.50;99.90
40808;DHT22;26523;52.504;13.498;2022-10-30T15:33:29;17.40;99.90
40808;DHT22;26523;52.504;13.498;2022-10-30T15:35:57;17.30;99.90
40808;DHT22;26523;52.504;13.498;2022-10-30T15:38:23;17.20;99.90
40808;DHT22;26523;52.504;13.498;2022-10-30T15:40:49;17.20;99.90
40808;DHT22;26523;52.504;13.498;2022-10-30T15:43:16;17.10;99.90
40808;DHT22;26523;52.504;13.498;2022-10-30T15:45:46;17.00;99.90
40808;DHT22;26523;52.504;13.498;2022-10-30T15:50:44;16.80;99.90
40808;DHT22;26523;52.504;13.498;2022-10-30T15:53:23;16.70;99.90
40808;DHT22;26523;52.504;13.498;2022-10-30T15:55:57;16.60;99.90
40808;DHT22;26523;52.504;13.498;2022-10-30T15:58:23;16.50;99.90
40808;DHT22;26523;52.504;13.498;2022-10-30T16:00:58;16.40;99.90
40808;DHT22;26523;52.504;13.498;2022-10-30T16:03:24;16.40;99.90
40808;DHT22;26523;52.504;13.498;2022-10-30T16:05:50;16.30;99.90
40808;DHT22;26523;52.504;13.498;2022-10-30T16:08:21;16.20;99.90
40808;DHT22;26523;52.504;13.498;2022-10-30T16:10:51;16.10;99.90
40808;DHT22;26523;52.504;13.498;2022-10-30T16:13:24;16.00;99.90
40808;DHT22;26523;52.504;13.498;2022-10-30T16:15:55;15.90;99.90
40808;DHT22;26523;52.504;13.498;2022-10-30T16:18:31;15.80;99.90
40808;DHT22;26523;52.504;13.498;2022-10-30T16:21:02;15.80;99.90
40808;DHT22;26523;52.504;13.498;2022-10-30T16:23:45;15.70;99.90
40808;DHT22;26523;52.504;13.498;2022-10-30T16:26:38;15.70;99.90
40808;DHT22;26523;52.504;13.498;2022-10-30T16:31:40;15.50;99.90
40808;DHT22;26523;52.504;13.498;2022-10-30T16:34:17;15.50;99.90
40808;DHT22;26523;52.504;13.498;2022-10-30T16:36:44;15.40;99.90
40808;DHT22;26523;52.504;13.498;2022-10-30T16:39:14;15.30;99.90
40808;DHT22;26523;52.504;13.498;2022-10-30T16:41:41;15.30;99.90
40808;DHT22;26523;52.504;13.498;2022-10-30T16:44:24;15.20;99.90
40808;DHT22;26523;52.504;13.498;2022-10-30T16:46:56;15.10;99.90
40808;DHT22;26523;52.504;13.498;2022-10-30T16:49:26;15.00;99.90
40808;DHT22;26523;52.504;13.498;2022-10-30T16:52:04;15.00;99.90
40808;DHT22;26523;52.504;13.498;2022-10-30T16:54:37;14.90;99.90
40808;DHT22;26523;52.504;13.498;2022-10-30T16:57:21;14.90;99.90
40808;DHT22;26523;52.504;13.498;2022-10-30T16:59:49;14.80;99.90
40808;DHT22;26523;52.504;13.498;2022-10-30T17:02:19;14.80;99.90
40808;DHT22;26523;52.504;13.498;2022-10-30T17:04:49;14.70;99.90
40808;DHT22;26523;52.504;13.498;2022-10-30T17:07:18;14.70;99.90
40808;DHT22;26523;52.504;13.498;2022-10-30T17:09:46;14.60;99.90
40808;DHT22;26523;52.504;13.498;2022-10-30T17:12:17;14.60;99.90
40808;DHT22;26523;52.504;13.498;2022-10-30T17:14:52;14.60;99.90
40808;DHT22;26523;52.504;13.498;2022-10-30T17:17:21;14.50;99.90
40808;DHT22;26523;52.504;13.498;2022-10-30T17:19:48;14.40;99.90
40808;DHT22;26523;52.504;13.498;2022-10-30T17:22:18;14.40;99.90
40808;DHT22;26523;52.504;13.498;2022-10-30T17:24:45;14.40;99.90
40808;DHT22;26523;52.504;13.498;2022-10-30T17:27:31;14.30;99.90
40808;DHT22;26523;52.504;13.498;2022-10-30T17:29:58;14.30;99.90
40808;DHT22;26523;52.504;13.498;2022-10-30T17:32:29;14.20;99.90
40808;DHT22;26523;52.504;13.498;2022-10-30T17:35:16;14.20;99.90
40808;DHT22;26523;52.504;13.498;2022-10-30T17:37:43;14.20;99.90